createdAt,value
2022-09-30T00:00:56.267Z,100814.00
2022-09-30T00:03:24.050Z,100816.00
2022-09-30T00:06:05.601Z,100819.00
2022-09-30T00:08:34.217Z,100809.00
2022-09-30T00:11:04.193Z,100812.00
2022-09-30T00:13:34.905Z,100814.00
2022-09-30T00:16:01.900Z,100819.00
2022-09-30T00:18:28.798Z,100815.00
2022-09-30T00:20:55.370Z,100817.00
2022-09-30T00:23:22.388Z,100819.00
2022-09-30T00:25:50.070Z,100811.00
2022-09-30T00:28:17.020Z,100816.00
2022-09-30T00:30:43.852Z,100813.00
2022-09-30T00:33:10.371Z,100816.00
2022-09-30T00:35:37.394Z,100812.00
2022-09-30T00:38:03.989Z,100806.00
2022-09-30T00:40:30.700Z,100811.00
2022-09-30T00:42:58.449Z,100812.00
2022-09-30T00:45:26.198Z,100811.00
2022-09-30T00:48:01.758Z,100823.00
2022-09-30T00:50:42.383Z,100822.00
2022-09-30T00:53:24.202Z,100820.00
2022-09-30T00:55:56.814Z,100821.00
2022-09-30T00:58:29.038Z,100821.00
2022-09-30T01:00:56.648Z,100812.00
2022-09-30T01:03:23.152Z,100811.00
2022-09-30T01:05:50.895Z,100815.00
2022-09-30T01:08:18.695Z,100811.00
2022-09-30T01:10:45.224Z,100812.00
2022-09-30T01:13:12.485Z,100813.00
2022-09-30T01:15:45.902Z,100813.00
2022-09-30T01:18:17.648Z,100815.00
2022-09-30T01:20:53.265Z,100812.00
2022-09-30T01:23:26.244Z,100814.00
2022-09-30T01:25:52.650Z,100806.00
2022-09-30T01:28:28.431Z,100803.00
2022-09-30T01:31:13.630Z,100807.00
2022-09-30T01:33:52.784Z,100807.00
2022-09-30T01:36:25.592Z,100819.00
2022-09-30T01:38:58.074Z,100816.00
2022-09-30T01:41:43.330Z,100810.00
2022-09-30T01:44:15.947Z,100803.00
2022-09-30T01:46:44.564Z,100809.00
2022-09-30T01:49:20.893Z,100804.00
2022-09-30T01:51:55.590Z,100804.00
2022-09-30T01:54:32.443Z,100810.00
2022-09-30T01:57:02.064Z,100802.00
2022-09-30T01:59:43.340Z,100796.00
2022-09-30T02:02:13.453Z,100794.00
2022-09-30T02:04:44.515Z,100802.00
2022-09-30T02:07:18.722Z,100798.00
2022-09-30T02:10:06.973Z,100791.00
2022-09-30T02:12:38.043Z,100784.00
2022-09-30T02:15:17.799Z,100783.00
2022-09-30T02:17:49.270Z,100787.00
2022-09-30T02:20:17.856Z,100796.00
2022-09-30T02:22:46.717Z,100792.00
2022-09-30T02:25:20.293Z,100806.00
2022-09-30T02:27:49.395Z,100811.00
2022-09-30T02:30:16.007Z,100806.00
2022-09-30T02:32:46.154Z,100817.00
2022-09-30T02:35:17.455Z,100814.00
2022-09-30T02:37:56.216Z,100815.00
2022-09-30T02:40:26.609Z,100820.00
2022-09-30T02:42:53.163Z,100835.00
2022-09-30T02:45:21.003Z,100845.00
2022-09-30T02:47:50.206Z,100834.00
2022-09-30T02:50:31.463Z,100848.00
2022-09-30T02:53:17.125Z,100852.00
2022-09-30T02:55:47.593Z,100864.00
2022-09-30T02:58:16.969Z,100857.00
2022-09-30T03:00:43.568Z,100866.00
2022-09-30T03:03:26.381Z,100877.00
2022-09-30T03:05:53.155Z,100876.00
2022-09-30T03:08:19.601Z,100876.00
2022-09-30T03:10:50.887Z,100875.00
2022-09-30T03:13:29.549Z,100869.00
2022-09-30T03:15:56.025Z,100869.00
2022-09-30T03:18:41.238Z,100874.00
2022-09-30T03:21:26.519Z,100879.00
2022-09-30T03:24:08.229Z,100882.00
2022-09-30T03:27:01.397Z,100883.00
2022-09-30T03:29:40.835Z,100888.00
2022-09-30T03:32:30.263Z,100886.00
2022-09-30T03:35:09.025Z,100891.00
2022-09-30T03:37:46.912Z,100892.00
2022-09-30T03:40:26.696Z,100882.00
2022-09-30T03:42:54.886Z,100890.00
2022-09-30T03:45:41.601Z,100889.00
2022-09-30T03:48:10.055Z,100896.00
2022-09-30T03:50:37.206Z,100895.00
2022-09-30T03:53:04.445Z,100895.00
2022-09-30T03:55:33.446Z,100893.00
2022-09-30T03:57:59.849Z,100895.00
2022-09-30T04:00:26.379Z,100900.00
2022-09-30T04:02:57.630Z,100899.00
2022-09-30T04:05:24.393Z,100904.00
2022-09-30T04:07:51.039Z,100891.00
2022-09-30T04:10:17.466Z,100891.00
2022-09-30T04:12:44.144Z,100891.00
2022-09-30T04:15:10.962Z,100902.00
2022-09-30T04:17:37.541Z,100903.00
2022-09-30T04:20:04.149Z,100908.00
2022-09-30T04:22:30.574Z,100915.00
2022-09-30T04:24:57.165Z,100914.00
2022-09-30T04:27:23.667Z,100918.00
2022-09-30T04:29:50.087Z,100931.00
2022-09-30T04:32:16.587Z,100924.00
2022-09-30T04:34:43.017Z,100929.00
2022-09-30T04:37:11.139Z,100924.00
2022-09-30T04:39:37.696Z,100917.00
2022-09-30T04:42:04.434Z,100924.00
2022-09-30T04:44:30.870Z,100923.00
2022-09-30T04:46:57.307Z,100927.00
2022-09-30T04:49:24.493Z,100915.00
2022-09-30T04:51:51.027Z,100913.00
2022-09-30T04:54:17.478Z,100914.00
2022-09-30T04:56:43.925Z,100905.00
2022-09-30T04:59:10.483Z,100914.00
2022-09-30T05:01:37.045Z,100918.00
2022-09-30T05:04:03.701Z,100922.00
2022-09-30T05:06:30.110Z,100925.00
2022-09-30T05:08:56.539Z,100933.00
2022-09-30T05:11:23.075Z,100934.00
2022-09-30T05:13:51.141Z,100926.00
2022-09-30T05:16:17.910Z,100928.00
2022-09-30T05:18:46.231Z,100928.00
2022-09-30T05:21:18.376Z,100926.00
2022-09-30T05:23:44.791Z,100938.00
2022-09-30T05:26:12.517Z,100939.00
2022-09-30T05:28:39.575Z,100945.00
2022-09-30T05:31:06.654Z,100941.00
2022-09-30T05:33:33.181Z,100944.00
2022-09-30T05:36:01.205Z,100943.00
2022-09-30T05:38:27.829Z,100944.00
2022-09-30T05:41:13.642Z,100947.00
2022-09-30T05:43:42.502Z,100950.00
2022-09-30T05:46:09.013Z,100951.00
2022-09-30T05:48:35.494Z,100945.00
2022-09-30T05:51:02.310Z,100949.00
2022-09-30T05:53:29.571Z,100947.00
2022-09-30T05:55:56.103Z,100944.00
2022-09-30T05:58:22.647Z,100939.00
2022-09-30T06:00:49.466Z,100958.00
2022-09-30T06:03:16.391Z,100955.00
2022-09-30T06:05:43.081Z,100955.00
2022-09-30T06:08:10.113Z,100947.00
2022-09-30T06:10:36.528Z,100954.00
2022-09-30T06:13:03.863Z,100958.00
2022-09-30T06:15:30.354Z,100966.00
2022-09-30T06:17:56.849Z,100965.00
2022-09-30T06:20:23.529Z,100966.00
2022-09-30T06:22:50.006Z,100963.00
2022-09-30T06:25:16.436Z,100963.00
2022-09-30T06:27:48.942Z,100961.00
2022-09-30T06:30:15.487Z,100964.00
2022-09-30T06:32:42.609Z,100963.00
2022-09-30T06:35:10.209Z,100969.00
2022-09-30T06:37:39.418Z,100975.00
2022-09-30T06:40:06.295Z,100967.00
2022-09-30T06:42:32.737Z,100972.00
2022-09-30T06:44:59.314Z,100977.00
2022-09-30T06:47:26.270Z,100975.00
2022-09-30T06:49:58.949Z,100974.00
2022-09-30T06:52:26.364Z,100965.00
2022-09-30T06:54:53.484Z,100963.00
2022-09-30T06:57:22.675Z,100962.00
2022-09-30T06:59:50.281Z,100958.00
2022-09-30T07:02:17.269Z,100953.00
2022-09-30T07:04:43.817Z,100957.00
2022-09-30T07:07:10.764Z,100951.00
2022-09-30T07:09:37.305Z,100955.00
2022-09-30T07:12:04.801Z,100950.00
2022-09-30T07:14:31.417Z,100951.00
2022-09-30T07:16:58.584Z,100952.00
2022-09-30T07:19:25.149Z,100948.00
2022-09-30T07:21:51.642Z,100951.00
2022-09-30T07:24:18.349Z,100947.00
2022-09-30T07:26:45.455Z,100955.00
2022-09-30T07:29:14.029Z,100958.00
2022-09-30T07:31:41.258Z,100947.00
2022-09-30T07:34:08.769Z,100949.00
2022-09-30T07:36:37.125Z,100952.00
2022-09-30T07:39:07.662Z,100959.00
2022-09-30T07:41:35.841Z,100959.00
2022-09-30T07:44:02.959Z,100955.00
2022-09-30T07:46:30.500Z,100956.00
2022-09-30T07:49:00.575Z,100959.00
2022-09-30T07:51:32.010Z,100949.00
2022-09-30T07:53:59.847Z,100948.00
2022-09-30T07:56:26.536Z,100943.00
2022-09-30T07:58:57.103Z,100957.00
2022-09-30T08:01:24.427Z,100950.00
2022-09-30T08:03:53.188Z,100947.00
2022-09-30T08:06:20.180Z,100948.00
2022-09-30T08:08:47.449Z,100949.00
2022-09-30T08:11:14.725Z,100949.00
2022-09-30T08:13:41.531Z,100953.00
2022-09-30T08:16:08.056Z,100948.00
2022-09-30T08:18:34.533Z,100955.00
2022-09-30T08:21:04.784Z,100960.00
2022-09-30T08:23:31.458Z,100945.00
2022-09-30T08:26:02.633Z,100961.00
2022-09-30T08:28:31.799Z,100962.00
2022-09-30T08:31:04.424Z,100959.00
2022-09-30T08:33:30.878Z,100964.00
2022-09-30T08:35:57.328Z,100961.00
2022-09-30T08:38:23.814Z,100962.00
2022-09-30T08:40:59.155Z,100961.00
2022-09-30T08:43:36.680Z,100964.00
2022-09-30T08:46:11.353Z,100964.00
2022-09-30T08:48:53.182Z,100968.00
2022-09-30T08:51:36.916Z,100975.00
2022-09-30T08:54:05.487Z,100984.00
2022-09-30T08:56:32.725Z,100984.00
2022-09-30T08:59:08.853Z,100979.00
2022-09-30T09:01:37.770Z,100974.00
2022-09-30T09:04:05.513Z,100989.00
2022-09-30T09:06:52.867Z,100992.00
2022-09-30T09:09:38.071Z,100990.00
2022-09-30T09:12:21.189Z,100995.00
2022-09-30T09:14:52.282Z,100990.00
2022-09-30T09:17:25.038Z,100998.00
2022-09-30T09:19:57.659Z,100997.00
2022-09-30T09:22:26.882Z,100992.00
2022-09-30T09:24:54.802Z,101001.00
2022-09-30T09:27:35.926Z,100997.00
2022-09-30T09:30:09.730Z,100999.00
2022-09-30T09:32:36.336Z,101000.00
2022-09-30T09:35:16.666Z,100995.00
2022-09-30T09:38:20.902Z,100998.00
2022-09-30T09:41:06.334Z,100983.00
2022-09-30T09:43:33.308Z,100987.00
2022-09-30T09:46:09.105Z,100997.00
2022-09-30T09:48:36.018Z,100989.00
2022-09-30T09:51:05.503Z,100991.00
2022-09-30T09:53:42.684Z,100992.00
2022-09-30T09:56:18.534Z,100998.00
2022-09-30T09:59:05.302Z,100989.00
2022-09-30T10:01:36.898Z,100997.00
2022-09-30T10:04:09.701Z,100993.00
2022-09-30T10:06:43.790Z,100988.00
2022-09-30T10:09:22.411Z,100988.00
2022-09-30T10:11:48.951Z,100989.00
2022-09-30T10:14:20.799Z,100982.00
2022-09-30T10:16:47.908Z,100975.00
2022-09-30T10:19:21.514Z,100977.00
2022-09-30T10:21:48.049Z,100980.00
2022-09-30T10:24:28.366Z,100978.00
2022-09-30T10:26:54.924Z,100973.00
2022-09-30T10:29:28.629Z,100973.00
2022-09-30T10:31:59.069Z,100974.00
2022-09-30T10:34:32.594Z,100982.00
2022-09-30T10:37:01.426Z,100981.00
2022-09-30T10:39:38.718Z,100977.00
2022-09-30T10:42:07.390Z,100978.00
2022-09-30T10:44:39.039Z,100971.00
2022-09-30T10:47:05.813Z,100971.00
2022-09-30T10:49:47.560Z,100964.00
2022-09-30T10:52:22.297Z,100971.00
2022-09-30T10:54:50.477Z,100962.00
2022-09-30T10:57:22.316Z,100969.00
2022-09-30T10:59:49.291Z,100960.00
2022-09-30T11:02:31.888Z,100963.00
2022-09-30T11:05:01.274Z,100959.00
2022-09-30T11:07:30.528Z,100954.00
2022-09-30T11:10:00.926Z,100955.00
2022-09-30T11:12:46.184Z,100947.00
2022-09-30T11:15:12.764Z,100944.00
2022-09-30T11:17:41.810Z,100951.00
2022-09-30T11:20:29.055Z,100937.00
2022-09-30T11:23:02.749Z,100942.00
2022-09-30T11:25:40.201Z,100941.00
2022-09-30T11:28:09.826Z,100937.00
2022-09-30T11:30:44.944Z,100944.00
2022-09-30T11:33:11.374Z,100938.00
2022-09-30T11:35:44.080Z,100935.00
2022-09-30T11:38:16.748Z,100936.00
2022-09-30T11:40:51.506Z,100940.00
2022-09-30T11:43:43.786Z,100944.00
2022-09-30T11:46:29.913Z,100935.00
2022-09-30T11:48:59.598Z,100930.00
2022-09-30T11:51:51.563Z,100923.00
2022-09-30T11:54:25.624Z,100914.00
2022-09-30T11:57:10.879Z,100903.00
2022-09-30T11:59:42.837Z,100911.00
2022-09-30T12:02:20.128Z,100902.00
2022-09-30T12:04:47.338Z,100902.00
2022-09-30T12:07:19.971Z,100900.00
2022-09-30T12:09:48.472Z,100896.00
2022-09-30T12:12:17.533Z,100891.00
2022-09-30T12:14:46.466Z,100896.00
2022-09-30T12:17:20.948Z,100884.00
2022-09-30T12:19:48.360Z,100887.00
2022-09-30T12:22:24.418Z,100879.00
2022-09-30T12:24:50.910Z,100873.00
2022-09-30T12:27:34.072Z,100872.00
2022-09-30T12:30:17.720Z,100868.00
2022-09-30T12:33:02.798Z,100875.00
2022-09-30T12:35:32.823Z,100862.00
2022-09-30T12:38:05.494Z,100870.00
2022-09-30T12:40:52.798Z,100864.00
2022-09-30T12:43:22.520Z,100864.00
2022-09-30T12:45:49.405Z,100854.00
2022-09-30T12:48:17.824Z,100853.00
2022-09-30T12:50:53.288Z,100844.00
2022-09-30T12:53:23.897Z,100853.00
2022-09-30T12:55:50.832Z,100860.00
2022-09-30T12:58:30.937Z,100857.00
2022-09-30T13:01:12.628Z,100851.00
2022-09-30T13:03:45.332Z,100848.00
2022-09-30T13:06:14.518Z,100838.00
2022-09-30T13:08:48.598Z,100837.00
2022-09-30T13:11:31.240Z,100837.00
2022-09-30T13:14:13.692Z,100836.00
2022-09-30T13:16:58.956Z,100837.00
2022-09-30T13:19:32.797Z,100828.00
2022-09-30T13:22:29.716Z,100820.00
2022-09-30T13:25:00.518Z,100834.00
2022-09-30T13:27:42.047Z,100824.00
2022-09-30T13:30:14.765Z,100827.00
2022-09-30T13:33:02.406Z,100829.00
2022-09-30T13:35:33.254Z,100821.00
2022-09-30T13:38:11.993Z,100821.00
2022-09-30T13:41:02.906Z,100814.00
2022-09-30T13:43:36.521Z,100814.00
2022-09-30T13:46:26.300Z,100812.00
2022-09-30T13:48:55.441Z,100806.00
2022-09-30T13:51:24.572Z,100815.00
2022-09-30T13:53:53.391Z,100813.00
2022-09-30T13:56:20.046Z,100801.00
2022-09-30T13:58:55.766Z,100813.00
2022-09-30T14:01:42.260Z,100812.00
2022-09-30T14:04:23.405Z,100801.00
2022-09-30T14:06:52.943Z,100802.00
2022-09-30T14:09:38.807Z,100800.00
2022-09-30T14:12:13.633Z,100809.00
2022-09-30T14:14:43.184Z,100804.00
2022-09-30T14:17:21.293Z,100799.00
2022-09-30T14:19:55.687Z,100804.00
2022-09-30T14:22:26.278Z,100794.00
2022-09-30T14:24:54.903Z,100801.00
2022-09-30T14:27:21.359Z,100791.00
2022-09-30T14:29:59.942Z,100806.00
2022-09-30T14:32:31.940Z,100809.00
2022-09-30T14:35:05.662Z,100800.00
2022-09-30T14:37:39.741Z,100806.00
2022-09-30T14:40:55.626Z,100806.00
2022-09-30T14:43:23.804Z,100812.00
2022-09-30T14:45:55.481Z,100814.00
2022-09-30T14:48:25.499Z,100797.00
2022-09-30T14:50:56.077Z,100785.00
2022-09-30T14:53:29.975Z,100788.00
2022-09-30T14:55:57.189Z,100781.00
2022-09-30T14:58:29.127Z,100783.00
2022-09-30T15:01:01.708Z,100784.00
2022-09-30T15:03:29.080Z,100780.00
2022-09-30T15:05:56.979Z,100776.00
2022-09-30T15:08:23.846Z,100775.00
2022-09-30T15:10:51.959Z,100772.00
2022-09-30T15:13:19.953Z,100775.00
2022-09-30T15:15:46.544Z,100773.00
2022-09-30T15:18:24.071Z,100776.00
2022-09-30T15:20:54.386Z,100778.00
2022-09-30T15:23:30.081Z,100767.00
2022-09-30T15:25:57.743Z,100768.00
2022-09-30T15:28:24.366Z,100753.00
2022-09-30T15:30:54.707Z,100764.00
2022-09-30T15:33:24.110Z,100765.00
2022-09-30T15:35:53.041Z,100755.00
2022-09-30T15:38:21.611Z,100755.00
2022-09-30T15:40:59.062Z,100756.00
2022-09-30T15:43:35.671Z,100764.00
2022-09-30T15:46:21.652Z,100760.00
2022-09-30T15:48:48.585Z,100760.00
2022-09-30T15:51:39.141Z,100756.00
2022-09-30T15:54:15.761Z,100759.00
2022-09-30T15:56:43.198Z,100761.00
2022-09-30T15:59:11.336Z,100758.00
2022-09-30T16:01:44.668Z,100755.00
2022-09-30T16:04:14.440Z,100758.00
2022-09-30T16:06:40.872Z,100752.00
2022-09-30T16:09:22.725Z,100747.00
2022-09-30T16:12:03.026Z,100758.00
2022-09-30T16:14:34.166Z,100751.00
2022-09-30T16:17:02.180Z,100751.00
2022-09-30T16:19:29.346Z,100750.00
2022-09-30T16:21:56.188Z,100744.00
2022-09-30T16:24:22.584Z,100745.00
2022-09-30T16:26:49.912Z,100743.00
2022-09-30T16:29:17.982Z,100741.00
2022-09-30T16:31:45.606Z,100745.00
2022-09-30T16:34:18.313Z,100741.00
2022-09-30T16:36:44.915Z,100738.00
2022-09-30T16:39:12.963Z,100733.00
2022-09-30T16:41:39.587Z,100736.00
2022-09-30T16:44:06.334Z,100737.00
2022-09-30T16:46:33.366Z,100725.00
2022-09-30T16:49:00.727Z,100729.00
2022-09-30T16:51:27.141Z,100717.00
2022-09-30T16:53:53.574Z,100721.00
2022-09-30T16:56:20.309Z,100712.00
2022-09-30T16:58:47.518Z,100710.00
2022-09-30T17:01:21.642Z,100711.00
2022-09-30T17:03:51.006Z,100703.00
2022-09-30T17:06:19.022Z,100706.00
2022-09-30T17:08:45.494Z,100703.00
2022-09-30T17:11:11.897Z,100695.00
2022-09-30T17:13:38.706Z,100690.00
2022-09-30T17:16:05.230Z,100677.00
2022-09-30T17:18:31.713Z,100683.00
2022-09-30T17:23:52.922Z,100688.00
2022-09-30T17:26:19.354Z,100683.00
2022-09-30T17:28:46.251Z,100681.00
2022-09-30T17:31:12.951Z,100684.00
2022-09-30T17:33:40.314Z,100682.00
2022-09-30T17:36:09.697Z,100690.00
2022-09-30T17:38:36.526Z,100697.00
2022-09-30T17:41:21.534Z,100700.00
2022-09-30T17:43:49.029Z,100691.00
2022-09-30T17:46:19.311Z,100678.00
2022-09-30T17:48:46.676Z,100687.00
2022-09-30T17:51:14.788Z,100688.00
2022-09-30T17:53:41.294Z,100676.00
2022-09-30T17:56:14.498Z,100665.00
2022-09-30T17:58:41.112Z,100662.00
2022-09-30T18:01:07.962Z,100663.00
2022-09-30T18:03:34.945Z,100656.00
2022-09-30T18:06:01.678Z,100667.00
2022-09-30T18:08:28.392Z,100665.00
2022-09-30T18:10:57.374Z,100652.00
2022-09-30T18:13:27.712Z,100648.00
2022-09-30T18:15:54.902Z,100639.00
2022-09-30T18:18:21.699Z,100638.00
2022-09-30T18:20:49.268Z,100638.00
2022-09-30T18:23:18.775Z,100632.00
2022-09-30T18:25:49.762Z,100622.00
2022-09-30T18:28:16.787Z,100619.00
2022-09-30T18:30:43.792Z,100609.00
2022-09-30T18:33:11.005Z,100618.00
2022-09-30T18:35:38.910Z,100613.00
2022-09-30T18:38:06.635Z,100616.00
2022-09-30T18:40:33.731Z,100621.00
2022-09-30T18:43:09.905Z,100616.00
2022-09-30T18:45:38.185Z,100611.00
2022-09-30T18:48:05.182Z,100612.00
2022-09-30T18:50:34.719Z,100599.00
2022-09-30T18:53:09.053Z,100604.00
2022-09-30T18:55:39.667Z,100592.00
2022-09-30T18:58:06.320Z,100594.00
2022-09-30T19:00:36.250Z,100592.00
2022-09-30T19:03:02.751Z,100601.00
2022-09-30T19:05:29.464Z,100603.00
2022-09-30T19:07:56.096Z,100593.00
2022-09-30T19:10:24.588Z,100576.00
2022-09-30T19:12:59.612Z,100580.00
2022-09-30T19:15:26.134Z,100573.00
2022-09-30T19:17:53.149Z,100564.00
2022-09-30T19:20:19.590Z,100561.00
2022-09-30T19:22:46.821Z,100554.00
2022-09-30T19:25:16.833Z,100556.00
2022-09-30T19:27:43.634Z,100560.00
2022-09-30T19:30:11.303Z,100561.00
2022-09-30T19:32:37.729Z,100559.00
2022-09-30T19:35:06.590Z,100565.00
2022-09-30T19:37:34.383Z,100549.00
2022-09-30T19:40:14.571Z,100537.00
2022-09-30T19:42:46.436Z,100531.00
2022-09-30T19:45:12.915Z,100525.00
2022-09-30T19:47:39.354Z,100524.00
2022-09-30T19:50:06.879Z,100512.00
2022-09-30T19:52:34.019Z,100510.00
2022-09-30T19:55:11.647Z,100503.00
2022-09-30T19:57:42.734Z,100505.00
2022-09-30T20:00:10.664Z,100497.00
2022-09-30T20:02:37.229Z,100493.00
2022-09-30T20:05:04.647Z,100490.00
2022-09-30T20:07:31.072Z,100487.00
2022-09-30T20:09:57.573Z,100487.00
2022-09-30T20:12:24.028Z,100473.00
2022-09-30T20:15:09.120Z,100468.00
2022-09-30T20:17:35.942Z,100480.00
2022-09-30T20:20:21.191Z,100478.00
2022-09-30T20:22:47.625Z,100472.00
2022-09-30T20:25:14.086Z,100476.00
2022-09-30T20:27:42.950Z,100476.00
2022-09-30T20:30:09.713Z,100481.00
2022-09-30T20:32:36.103Z,100489.00
2022-09-30T20:35:02.528Z,100483.00
2022-09-30T20:37:29.910Z,100476.00
2022-09-30T20:39:57.761Z,100478.00
2022-09-30T20:42:25.662Z,100485.00
2022-09-30T20:44:52.175Z,100481.00
2022-09-30T20:47:19.389Z,100491.00
2022-09-30T20:49:45.791Z,100477.00
2022-09-30T20:52:12.789Z,100468.00
2022-09-30T20:54:39.215Z,100459.00
2022-09-30T20:57:07.779Z,100459.00
2022-09-30T20:59:40.182Z,100444.00
2022-09-30T21:02:11.223Z,100442.00
2022-09-30T21:04:38.318Z,100453.00
2022-09-30T21:07:04.876Z,100456.00
2022-09-30T21:09:34.670Z,100460.00
2022-09-30T21:12:01.306Z,100450.00
2022-09-30T21:14:28.010Z,100447.00
2022-09-30T21:16:54.409Z,100447.00
2022-09-30T21:19:21.099Z,100446.00
2022-09-30T21:21:47.589Z,100434.00
2022-09-30T21:24:16.297Z,100427.00
2022-09-30T21:26:43.208Z,100403.00
2022-09-30T21:29:09.666Z,100408.00
2022-09-30T21:31:37.801Z,100394.00
2022-09-30T21:34:04.546Z,100381.00
2022-09-30T21:36:32.203Z,100385.00
2022-09-30T21:39:04.741Z,100365.00
2022-09-30T21:41:33.306Z,100356.00
2022-09-30T21:44:01.401Z,100349.00
2022-09-30T21:46:29.547Z,100349.00
2022-09-30T21:49:06.461Z,100337.00
2022-09-30T21:51:34.694Z,100331.00
2022-09-30T21:54:02.092Z,100318.00
2022-09-30T21:56:28.705Z,100300.00
2022-09-30T21:58:55.941Z,100283.00
2022-09-30T22:01:22.563Z,100250.00
2022-09-30T22:03:49.009Z,100261.00
2022-09-30T22:06:16.190Z,100292.00
2022-09-30T22:08:42.613Z,100272.00
2022-09-30T22:11:11.170Z,100242.00
2022-09-30T22:13:40.702Z,100240.00
2022-09-30T22:16:07.709Z,100242.00
2022-09-30T22:18:34.743Z,100223.00
2022-09-30T22:21:05.422Z,100198.00
2022-09-30T22:23:32.168Z,100203.00
2022-09-30T22:26:05.814Z,100214.00
2022-09-30T22:28:32.287Z,100201.00
2022-09-30T22:30:58.695Z,100210.00
2022-09-30T22:33:44.035Z,100194.00
2022-09-30T22:36:29.158Z,100201.00
2022-09-30T22:38:55.590Z,100183.00
2022-09-30T22:41:22.218Z,100183.00
2022-09-30T22:43:48.969Z,100183.00
2022-09-30T22:46:15.476Z,100178.00
2022-09-30T22:48:42.136Z,100168.00
2022-09-30T22:51:14.480Z,100175.00
2022-09-30T22:53:41.049Z,100177.00
2022-09-30T22:56:07.553Z,100167.00
2022-09-30T22:58:36.854Z,100182.00
2022-09-30T23:01:03.461Z,100175.00
2022-09-30T23:03:29.974Z,100160.00
2022-09-30T23:06:00.463Z,100157.00
2022-09-30T23:08:34.004Z,100163.00
2022-09-30T23:11:00.582Z,100153.00
2022-09-30T23:13:34.894Z,100151.00
2022-09-30T23:16:01.497Z,100145.00
2022-09-30T23:18:28.513Z,100147.00
2022-09-30T23:20:58.572Z,100148.00
2022-09-30T23:23:25.000Z,100157.00
2022-09-30T23:26:01.876Z,100154.00
2022-09-30T23:28:28.716Z,100141.00
2022-09-30T23:30:57.262Z,100143.00
2022-09-30T23:33:23.870Z,100141.00
2022-09-30T23:35:50.385Z,100128.00
2022-09-30T23:38:18.002Z,100126.00
2022-09-30T23:40:48.256Z,100111.00
2022-09-30T23:43:15.335Z,100086.00
2022-09-30T23:45:43.822Z,100085.00
2022-09-30T23:48:10.316Z,100070.00
2022-09-30T23:50:36.800Z,100093.00
2022-09-30T23:53:03.267Z,100110.00
2022-09-30T23:55:30.061Z,100086.00
2022-09-30T23:57:59.561Z,100082.00
